Time;durP1;ratioP1;P1;durP2;ratioP2;P2;SDS_P1;SDS_P2;PMS_P1;PMS_P2;Temp;Humidity;BMP_temperature;BMP_pressure;BME280_temperature;BME280_humidity;BME280_pressure;Samples;Min_cycle;Max_cycle;Signal;HPM_P1;HPM_P2
2023/03/23 00:01:12;;;;;;;3.78;1.88;;;13.20;99.90;;;;;;5070562;28;20171;-81
2023/03/23 00:03:40;;;;;;;4.70;1.95;;;13.20;99.90;;;;;;5056496;28;20218;-80
2023/03/23 00:06:06;;;;;;;2.42;1.80;;;13.20;99.90;;;;;;5055362;28;20225;-80
2023/03/23 00:08:37;;;;;;;2.45;1.60;;;13.10;99.90;;;;;;5069475;28;20689;-80
2023/03/23 00:11:04;;;;;;;2.03;1.80;;;13.20;99.90;;;;;;5057124;28;20201;-80
2023/03/23 00:13:30;;;;;;;2.88;1.92;;;13.10;99.90;;;;;;5048956;28;20218;-81
2023/03/23 00:15:56;;;;;;;3.13;2.25;;;13.10;99.90;;;;;;5052581;28;20259;-80
2023/03/23 00:18:23;;;;;;;3.83;1.75;;;13.10;99.90;;;;;;5070055;28;20253;-80
2023/03/23 00:20:54;;;;;;;4.60;1.97;;;13.00;99.90;;;;;;5069193;28;20244;-80
2023/03/23 00:23:23;;;;;;;3.65;2.00;;;13.00;99.90;;;;;;5064388;28;20203;-79
2023/03/23 00:25:52;;;;;;;3.77;1.87;;;13.00;99.90;;;;;;5070441;28;20164;-82
2023/03/23 00:28:24;;;;;;;4.35;2.10;;;13.00;99.90;;;;;;5072947;28;20628;-79
2023/03/23 00:31:05;;;;;;;3.03;2.00;;;12.90;99.90;;;;;;5055693;28;20264;-80
2023/03/23 00:33:37;;;;;;;2.67;1.63;;;12.90;99.90;;;;;;5066012;28;20198;-80
2023/03/23 00:36:04;;;;;;;2.93;1.57;;;12.90;99.90;;;;;;5052239;28;20281;-81
2023/03/23 00:38:30;;;;;;;3.47;2.05;;;12.90;99.90;;;;;;5072095;28;20676;-80
2023/03/23 00:40:57;;;;;;;1.60;1.50;;;12.90;99.90;;;;;;5067506;28;20210;-80
2023/03/23 00:43:28;;;;;;;1.97;1.60;;;12.90;99.90;;;;;;5063688;28;20184;-79
2023/03/23 00:45:55;;;;;;;2.28;1.52;;;12.80;99.90;;;;;;5064659;28;20195;-80
2023/03/23 00:48:24;;;;;;;2.13;1.58;;;12.80;99.90;;;;;;5069670;28;20211;-82
2023/03/23 00:50:51;;;;;;;5.07;1.60;;;12.80;99.90;;;;;;5068591;28;20214;-80
2023/03/23 00:53:18;;;;;;;2.50;2.25;;;12.80;99.90;;;;;;5045554;28;20208;-80
2023/03/23 00:55:45;;;;;;;2.83;1.60;;;12.80;99.90;;;;;;5053927;28;20257;-80
2023/03/23 00:58:12;;;;;;;3.20;1.98;;;12.70;99.90;;;;;;5053381;28;20286;-80
2023/03/23 01:00:38;;;;;;;3.43;1.70;;;12.70;99.90;;;;;;5052800;28;20241;-80
2023/03/23 01:03:05;;;;;;;2.77;1.87;;;12.70;99.90;;;;;;5051536;28;20218;-78
2023/03/23 01:05:40;;;;;;;2.53;1.87;;;12.70;99.90;;;;;;5065603;28;20202;-83
2023/03/23 01:08:06;;;;;;;4.40;1.97;;;12.70;99.90;;;;;;5067671;28;20210;-79
2023/03/23 01:10:33;;;;;;;3.30;1.60;;;12.70;99.90;;;;;;5054695;28;20178;-81
2023/03/23 01:13:02;;;;;;;3.07;1.73;;;12.70;99.90;;;;;;5053707;28;20207;-82
2023/03/23 01:15:29;;;;;;;3.10;1.93;;;12.60;99.90;;;;;;5065067;28;20210;-79
2023/03/23 01:17:55;;;;;;;2.67;1.60;;;12.60;99.90;;;;;;5064654;28;20220;-79
2023/03/23 01:20:21;;;;;;;2.30;2.10;;;12.60;99.90;;;;;;5069780;28;20234;-80
2023/03/23 01:22:47;;;;;;;2.83;2.00;;;12.60;99.90;;;;;;5072198;28;20187;-81
2023/03/23 01:25:13;;;;;;;2.37;1.80;;;12.50;99.90;;;;;;5062866;28;20164;-79
2023/03/23 01:27:40;;;;;;;2.70;1.77;;;12.50;99.90;;;;;;5065850;28;20195;-80
2023/03/23 01:30:10;;;;;;;3.13;1.80;;;12.50;99.90;;;;;;5045457;28;20549;-80
2023/03/23 01:32:36;;;;;;;4.50;1.90;;;12.50;99.90;;;;;;5065917;28;20234;-80
2023/03/23 01:35:01;;;;;;;3.13;1.83;;;12.40;99.90;;;;;;5051056;28;20227;-79
2023/03/23 01:37:27;;;;;;;3.93;1.63;;;12.40;99.90;;;;;;5062564;28;20187;-80
2023/03/23 01:39:57;;;;;;;3.20;1.43;;;12.40;99.90;;;;;;5063935;28;20202;-79
2023/03/23 01:42:30;;;;;;;3.33;1.90;;;12.40;99.90;;;;;;5062789;28;20207;-79
2023/03/23 01:45:14;;;;;;;2.57;1.73;;;12.40;99.90;;;;;;5065147;28;20672;-79
2023/03/23 01:47:40;;;;;;;2.43;2.07;;;12.40;99.90;;;;;;5046105;28;20209;-80
2023/03/23 01:50:06;;;;;;;4.50;1.90;;;12.50;99.90;;;;;;5064890;28;20211;-80
2023/03/23 01:52:33;;;;;;;4.57;1.93;;;12.40;99.90;;;;;;5066212;28;20241;-80
2023/03/23 01:54:59;;;;;;;3.10;1.60;;;12.40;99.90;;;;;;5067590;28;20187;-79
2023/03/23 01:57:26;;;;;;;2.93;1.60;;;12.40;99.90;;;;;;5064708;28;20206;-79
2023/03/23 01:59:54;;;;;;;2.47;1.67;;;12.50;99.90;;;;;;5052704;28;20240;-80
2023/03/23 02:02:22;;;;;;;3.13;1.87;;;12.50;99.90;;;;;;5069310;28;20745;-78
2023/03/23 02:04:48;;;;;;;2.50;1.60;;;12.50;99.90;;;;;;5051188;28;20187;-80
2023/03/23 02:07:17;;;;;;;2.53;1.90;;;12.50;99.90;;;;;;5064782;28;20183;-80
2023/03/23 02:09:42;;;;;;;3.53;2.03;;;12.50;99.90;;;;;;5065446;28;20213;-80
2023/03/23 02:12:08;;;;;;;4.27;2.10;;;12.50;99.90;;;;;;5068067;28;20206;-80
2023/03/23 02:14:34;;;;;;;3.43;1.70;;;12.50;99.90;;;;;;5067035;28;20215;-81
2023/03/23 02:17:38;;;;;;;2.73;2.00;;;12.40;99.90;;;;;;5053520;28;20234;-83
2023/03/23 02:20:22;;;;;;;3.07;1.80;;;12.40;99.90;;;;;;5050511;28;20849;-80
2023/03/23 02:22:55;;;;;;;1.80;1.60;;;12.40;99.90;;;;;;5064482;28;20201;-82
2023/03/23 02:25:41;;;;;;;1.67;1.50;;;12.50;99.90;;;;;;5050642;28;20713;-81
2023/03/23 02:28:21;;;;;;;4.43;1.67;;;12.50;99.90;;;;;;5051420;28;20696;-82
2023/03/23 02:30:47;;;;;;;2.60;1.57;;;12.50;99.90;;;;;;5066869;28;20234;-81
2023/03/23 02:33:28;;;;;;;3.53;2.10;;;12.50;99.90;;;;;;5064266;28;20207;-81
2023/03/23 02:36:14;;;;;;;2.90;1.90;;;12.50;99.90;;;;;;5076571;28;20195;-83
2023/03/23 02:38:51;;;;;;;3.47;1.77;;;12.50;99.90;;;;;;5071070;28;20202;-81
2023/03/23 02:41:27;;;;;;;4.27;2.10;;;12.50;99.90;;;;;;5067892;28;20673;-81
2023/03/23 02:43:53;;;;;;;2.97;1.77;;;12.60;99.90;;;;;;5069782;28;20268;-81
2023/03/23 02:46:20;;;;;;;3.73;1.93;;;12.60;99.90;;;;;;5058894;28;20167;-81
2023/03/23 02:48:48;;;;;;;2.35;2.00;;;12.50;99.90;;;;;;5059917;28;20211;-81
2023/03/23 02:51:15;;;;;;;3.47;1.77;;;12.50;99.90;;;;;;5068181;28;20197;-82
2023/03/23 02:53:42;;;;;;;4.90;2.13;;;12.50;99.90;;;;;;5061628;28;20206;-81
2023/03/23 02:56:10;;;;;;;4.53;1.77;;;12.50;99.90;;;;;;5060662;28;20198;-81
2023/03/23 02:58:36;;;;;;;3.10;1.93;;;12.50;99.90;;;;;;5073019;28;20205;-81
2023/03/23 03:01:28;;;;;;;3.03;2.17;;;12.60;99.90;;;;;;5072211;28;20285;-81
2023/03/23 03:03:57;;;;;;;3.80;2.13;;;12.50;99.90;;;;;;5051975;28;20340;-79
2023/03/23 03:06:41;;;;;;;4.77;2.10;;;12.40;99.90;;;;;;5073902;28;20199;-79
2023/03/23 03:09:31;;;;;;;6.97;2.57;;;12.40;99.90;;;;;;5072182;28;20235;-80
2023/03/23 03:12:01;;;;;;;2.23;1.87;;;12.40;99.90;;;;;;5055588;28;20203;-79
2023/03/23 03:14:34;;;;;;;4.03;1.93;;;12.50;99.90;;;;;;5067339;28;20226;-79
2023/03/23 03:17:24;;;;;;;3.17;1.83;;;12.40;99.90;;;;;;5073438;28;20206;-80
2023/03/23 03:19:56;;;;;;;3.17;2.13;;;12.40;99.90;;;;;;5054733;28;20598;-80
2023/03/23 03:22:28;;;;;;;2.47;1.63;;;12.40;99.90;;;;;;5068820;28;20176;-79
2023/03/23 03:24:59;;;;;;;3.63;2.00;;;12.40;99.90;;;;;;5053211;28;20219;-80
2023/03/23 03:27:25;;;;;;;3.03;1.83;;;12.40;99.90;;;;;;5076300;28;20206;-79
2023/03/23 03:29:59;;;;;;;2.90;1.80;;;12.40;99.90;;;;;;5054952;28;20356;-79
2023/03/23 03:32:43;;;;;;;3.53;2.03;;;12.40;99.90;;;;;;5057176;28;20212;-79
2023/03/23 03:35:10;;;;;;;2.93;1.90;;;12.40;99.90;;;;;;5067795;28;20223;-79
2023/03/23 03:37:39;;;;;;;4.10;2.40;;;12.40;99.90;;;;;;5054656;28;20199;-79
2023/03/23 03:40:11;;;;;;;6.40;2.40;;;12.50;99.90;;;;;;5068112;28;20531;-79
2023/03/23 03:42:38;;;;;;;2.50;1.80;;;12.40;99.90;;;;;;5065980;28;20200;-81
2023/03/23 03:45:07;;;;;;;3.07;1.83;;;12.40;99.90;;;;;;5068623;28;20282;-81
2023/03/23 03:47:33;;;;;;;3.43;1.73;;;12.40;99.90;;;;;;5066763;28;20289;-82
2023/03/23 03:49:58;;;;;;;2.63;1.87;;;12.50;99.90;;;;;;5072520;28;20207;-81
2023/03/23 03:52:24;;;;;;;3.63;1.93;;;12.40;99.90;;;;;;5067096;28;20183;-81
2023/03/23 03:54:50;;;;;;;3.97;2.20;;;12.50;99.90;;;;;;5069340;28;20214;-81
2023/03/23 03:57:17;;;;;;;4.00;2.30;;;12.40;99.90;;;;;;5048911;28;20224;-82
2023/03/23 03:59:43;;;;;;;3.20;2.07;;;12.40;99.90;;;;;;5052167;28;20229;-81
2023/03/23 04:02:13;;;;;;;3.97;2.10;;;12.40;99.90;;;;;;5074986;28;20203;-82
2023/03/23 04:04:39;;;;;;;3.90;1.90;;;12.40;99.90;;;;;;5047471;28;20278;-81
2023/03/23 04:07:05;;;;;;;2.33;1.90;;;12.40;99.90;;;;;;5050903;28;20183;-81
2023/03/23 04:09:31;;;;;;;5.63;2.13;;;12.40;99.90;;;;;;5070715;28;20218;-81
2023/03/23 04:11:57;;;;;;;3.00;1.80;;;12.40;99.90;;;;;;5069854;28;20567;-81
2023/03/23 04:14:22;;;;;;;5.27;2.00;;;12.30;99.90;;;;;;5053403;28;20215;-80
2023/03/23 04:16:56;;;;;;;3.13;1.77;;;12.40;99.90;;;;;;5068280;28;20193;-80
2023/03/23 04:19:27;;;;;;;3.00;2.27;;;12.40;99.90;;;;;;5065506;28;20555;-81
2023/03/23 04:21:54;;;;;;;3.70;2.20;;;12.30;99.90;;;;;;5055358;28;20295;-81
2023/03/23 04:24:21;;;;;;;2.50;1.60;;;12.40;99.90;;;;;;5064842;28;20218;-82
2023/03/23 04:26:47;;;;;;;2.87;2.00;;;12.30;99.90;;;;;;5068456;28;20229;-81
2023/03/23 04:29:13;;;;;;;3.57;2.13;;;12.30;99.90;;;;;;5065207;28;20227;-81
2023/03/23 04:31:40;;;;;;;3.03;2.10;;;12.30;99.90;;;;;;5074500;28;20180;-80
2023/03/23 04:34:06;;;;;;;4.63;2.00;;;12.30;99.90;;;;;;5086352;28;20225;-81
2023/03/23 04:36:33;;;;;;;4.47;1.90;;;12.30;99.90;;;;;;5090105;28;20219;-82
2023/03/23 04:39:00;;;;;;;2.63;1.80;;;12.30;99.90;;;;;;5088459;28;20224;-83
2023/03/23 04:41:26;;;;;;;5.30;2.10;;;12.30;99.90;;;;;;5083425;28;20219;-81
2023/03/23 04:43:53;;;;;;;4.40;2.07;;;12.30;99.90;;;;;;5054624;28;20250;-81
2023/03/23 04:46:21;;;;;;;4.70;2.00;;;12.30;99.90;;;;;;5059065;28;20205;-81
2023/03/23 04:48:47;;;;;;;2.83;1.93;;;12.30;99.90;;;;;;5062464;28;20208;-82
2023/03/23 04:51:13;;;;;;;5.50;2.30;;;12.30;99.90;;;;;;5080675;28;20250;-81
2023/03/23 04:53:39;;;;;;;4.80;2.60;;;12.30;99.90;;;;;;5062771;28;20321;-81
2023/03/23 04:56:05;;;;;;;3.97;1.97;;;12.30;99.90;;;;;;5066410;28;20211;-83
2023/03/23 04:58:33;;;;;;;4.97;2.37;;;12.30;99.90;;;;;;5072341;28;20190;-82
2023/03/23 05:01:00;;;;;;;2.37;1.80;;;12.20;99.90;;;;;;5088327;28;20209;-82
2023/03/23 05:03:26;;;;;;;4.00;2.23;;;12.20;99.90;;;;;;5084809;28;20215;-82
2023/03/23 05:05:53;;;;;;;2.70;2.00;;;12.20;99.90;;;;;;5070145;28;20206;-82
2023/03/23 05:08:29;;;;;;;1.87;1.70;;;12.20;99.90;;;;;;5074529;28;20234;-81
2023/03/23 05:10:56;;;;;;;3.27;2.07;;;12.20;99.90;;;;;;5061204;28;20222;-82
2023/03/23 05:13:23;;;;;;;4.00;2.40;;;12.20;99.90;;;;;;5058023;28;20222;-80
2023/03/23 05:15:49;;;;;;;3.30;2.10;;;12.20;99.90;;;;;;5057389;28;20203;-81
2023/03/23 05:18:15;;;;;;;4.13;2.40;;;12.20;99.90;;;;;;5056224;28;20214;-80
2023/03/23 05:20:41;;;;;;;5.17;2.33;;;12.20;99.90;;;;;;5051171;28;20258;-81
2023/03/23 05:23:08;;;;;;;4.20;2.40;;;12.10;99.90;;;;;;5058519;28;20211;-81
2023/03/23 05:25:39;;;;;;;5.43;2.33;;;12.10;99.90;;;;;;5050315;28;20302;-81
2023/03/23 05:28:05;;;;;;;5.40;2.10;;;12.10;99.90;;;;;;5070640;28;20600;-81
2023/03/23 05:30:30;;;;;;;4.03;2.40;;;12.10;99.90;;;;;;5071438;28;20203;-81
2023/03/23 05:32:56;;;;;;;3.17;2.27;;;12.10;99.90;;;;;;5070025;28;20243;-81
2023/03/23 05:35:22;;;;;;;5.70;2.30;;;12.10;99.90;;;;;;5066391;28;20198;-82
2023/03/23 05:37:48;;;;;;;8.30;5.30;;;12.10;99.90;;;;;;5050228;28;20380;-81
2023/03/23 05:40:14;;;;;;;3.67;2.73;;;12.10;99.90;;;;;;5073210;28;20167;-82
2023/03/23 05:42:41;;;;;;;4.73;2.43;;;12.10;99.90;;;;;;5070965;28;20199;-81
2023/03/23 05:45:08;;;;;;;4.83;1.90;;;12.00;99.90;;;;;;5067067;28;20202;-82
2023/03/23 05:47:35;;;;;;;3.93;2.20;;;12.00;99.90;;;;;;5068948;28;20202;-81
2023/03/23 05:50:01;;;;;;;3.80;1.97;;;12.00;99.90;;;;;;5073463;28;20207;-80
2023/03/23 05:52:26;;;;;;;3.63;2.07;;;11.90;99.90;;;;;;5069783;28;20278;-80
2023/03/23 05:54:53;;;;;;;5.30;2.17;;;11.90;99.90;;;;;;5069791;28;20202;-80
2023/03/23 05:57:21;;;;;;;3.70;1.93;;;11.90;99.90;;;;;;5054483;28;20203;-79
2023/03/23 05:59:47;;;;;;;3.93;1.80;;;11.90;99.90;;;;;;5065093;28;20200;-80
2023/03/23 06:02:14;;;;;;;4.10;1.90;;;11.80;99.90;;;;;;5056877;28;20283;-80
2023/03/23 06:04:40;;;;;;;6.40;2.40;;;11.80;99.90;;;;;;5067573;28;20216;-81
2023/03/23 06:07:07;;;;;;;3.57;2.20;;;11.70;99.90;;;;;;5057782;28;20187;-80
2023/03/23 06:09:33;;;;;;;4.00;1.83;;;11.70;99.90;;;;;;5059023;28;20260;-81
2023/03/23 06:11:58;;;;;;;4.30;1.90;;;11.70;99.90;;;;;;5080643;28;20199;-80
2023/03/23 06:14:24;;;;;;;3.10;1.97;;;11.70;99.90;;;;;;5073249;28;20220;-79
2023/03/23 06:16:50;;;;;;;4.53;2.10;;;11.70;99.90;;;;;;5078546;28;20677;-81
2023/03/23 06:19:16;;;;;;;3.30;2.00;;;11.70;99.90;;;;;;5063906;28;20172;-81
2023/03/23 06:21:42;;;;;;;5.40;2.20;;;11.70;99.90;;;;;;5091202;28;20263;-81
2023/03/23 06:24:08;;;;;;;6.23;2.27;;;11.70;99.90;;;;;;5076363;28;20195;-80
2023/03/23 06:26:37;;;;;;;2.03;1.40;;;11.70;99.90;;;;;;5070935;28;20228;-80
2023/03/23 06:29:10;;;;;;;3.93;1.83;;;11.70;99.90;;;;;;5073040;28;20214;-79
2023/03/23 06:31:38;;;;;;;4.87;1.90;;;11.70;99.90;;;;;;5092160;28;20265;-80
2023/03/23 06:34:04;;;;;;;2.80;1.80;;;11.70;99.90;;;;;;5068512;28;20191;-80
2023/03/23 06:36:30;;;;;;;3.00;1.90;;;11.70;99.90;;;;;;5069559;28;20208;-80
2023/03/23 06:38:56;;;;;;;5.00;1.90;;;11.70;99.90;;;;;;5078525;28;20196;-82
2023/03/23 06:41:21;;;;;;;2.97;2.10;;;11.80;99.90;;;;;;5080392;28;20286;-81
2023/03/23 06:43:47;;;;;;;5.37;2.07;;;11.70;99.90;;;;;;5082119;28;20195;-80
2023/03/23 06:46:13;;;;;;;4.40;2.07;;;11.80;99.90;;;;;;5062890;28;20224;-82
2023/03/23 06:48:38;;;;;;;4.80;2.37;;;11.80;99.90;;;;;;5078196;28;20570;-81
2023/03/23 06:51:05;;;;;;;4.77;2.30;;;11.80;99.90;;;;;;5099648;28;20278;-82
2023/03/23 06:53:31;;;;;;;2.43;1.47;;;11.80;99.90;;;;;;5063099;28;20214;-81
2023/03/23 06:55:56;;;;;;;4.10;1.90;;;11.80;99.90;;;;;;5084261;28;20217;-80
2023/03/23 06:58:23;;;;;;;3.03;1.80;;;11.80;99.90;;;;;;5063310;28;20261;-82
2023/03/23 07:00:54;;;;;;;3.67;2.28;;;11.90;99.90;;;;;;5086898;28;20463;-80
2023/03/23 07:03:19;;;;;;;3.87;1.60;;;11.90;99.90;;;;;;5084067;28;20769;-81
2023/03/23 07:05:47;;;;;;;6.17;2.77;;;11.90;99.90;;;;;;5082480;28;20215;-81
2023/03/23 07:08:13;;;;;;;3.87;2.13;;;11.90;99.90;;;;;;5064840;28;20272;-82
2023/03/23 07:10:39;;;;;;;4.90;1.97;;;11.90;99.90;;;;;;5057027;28;20202;-80
2023/03/23 07:13:04;;;;;;;5.10;2.23;;;11.90;99.90;;;;;;5065133;28;20296;-80
2023/03/23 07:15:30;;;;;;;5.47;2.10;;;11.90;99.90;;;;;;5066639;28;20203;-80
2023/03/23 07:17:56;;;;;;;2.63;2.17;;;11.90;99.90;;;;;;5080187;28;20203;-80
2023/03/23 07:20:22;;;;;;;3.50;1.90;;;11.90;99.90;;;;;;5070178;28;20214;-81
2023/03/23 07:22:47;;;;;;;3.70;2.00;;;11.80;99.90;;;;;;5084463;28;20294;-80
2023/03/23 07:25:13;;;;;;;3.60;2.03;;;11.80;99.90;;;;;;5078573;28;20179;-80
2023/03/23 07:27:39;;;;;;;3.97;2.20;;;11.80;99.90;;;;;;5059169;28;20661;-80
2023/03/23 07:30:05;;;;;;;4.00;1.97;;;11.80;99.90;;;;;;5072993;28;20203;-80
2023/03/23 07:32:31;;;;;;;2.60;2.13;;;11.80;99.90;;;;;;5077888;28;20203;-80
2023/03/23 07:34:57;;;;;;;3.07;1.60;;;12.00;99.90;;;;;;5082965;28;20256;-80
2023/03/23 07:37:22;;;;;;;4.13;2.53;;;12.00;99.90;;;;;;5081953;28;20178;-80
2023/03/23 07:39:48;;;;;;;2.53;2.13;;;12.00;99.90;;;;;;5079414;28;20213;-80
2023/03/23 07:42:14;;;;;;;6.77;2.40;;;12.10;99.90;;;;;;5065820;28;20293;-80
2023/03/23 07:44:39;;;;;;;3.03;2.00;;;12.10;99.90;;;;;;5062549;28;20276;-80
2023/03/23 07:47:05;;;;;;;4.40;2.03;;;12.20;99.90;;;;;;5080554;28;20256;-80
2023/03/23 07:49:32;;;;;;;4.23;1.90;;;12.20;99.90;;;;;;5061930;28;20203;-80
2023/03/23 07:51:58;;;;;;;2.70;2.20;;;12.10;99.90;;;;;;5056342;28;20175;-80
2023/03/23 07:54:25;;;;;;;2.83;2.13;;;12.10;99.90;;;;;;5065607;28;20207;-79
2023/03/23 07:56:50;;;;;;;4.80;1.90;;;12.20;99.90;;;;;;5081387;28;20227;-80
2023/03/23 07:59:16;;;;;;;4.40;2.70;;;12.10;99.90;;;;;;5080445;28;20214;-80
2023/03/23 08:01:42;;;;;;;4.73;2.37;;;12.30;99.90;;;;;;5078153;28;20163;-80
2023/03/23 08:04:08;;;;;;;3.67;2.20;;;12.20;99.90;;;;;;5077975;28;20626;-80
2023/03/23 08:06:34;;;;;;;3.10;2.13;;;12.30;99.90;;;;;;5089164;28;20203;-80
2023/03/23 08:09:02;;;;;;;4.00;2.03;;;12.30;99.90;;;;;;5082488;28;20203;-80
2023/03/23 08:11:28;;;;;;;5.13;2.03;;;12.30;99.90;;;;;;5068397;28;20214;-80
2023/03/23 08:13:54;;;;;;;7.07;2.63;;;12.40;99.90;;;;;;5068400;28;20739;-80
2023/03/23 08:16:19;;;;;;;4.90;2.33;;;12.50;99.90;;;;;;5082616;28;20306;-80
2023/03/23 08:18:46;;;;;;;7.00;2.33;;;12.60;99.90;;;;;;5065284;28;20570;-81
2023/03/23 08:21:12;;;;;;;4.60;2.13;;;12.60;99.90;;;;;;5067982;28;20213;-80
2023/03/23 08:23:38;;;;;;;2.93;2.07;;;12.60;99.90;;;;;;5076261;28;20218;-80
2023/03/23 08:26:09;;;;;;;4.13;1.90;;;12.50;99.90;;;;;;5080955;28;20202;-80
2023/03/23 08:28:36;;;;;;;5.40;2.50;;;12.50;99.90;;;;;;5065395;28;20217;-80
2023/03/23 08:31:13;;;;;;;2.57;2.20;;;12.60;99.90;;;;;;5082596;28;20254;-81
2023/03/23 08:33:40;;;;;;;3.87;2.00;;;12.60;99.90;;;;;;5075682;28;20207;-80
2023/03/23 08:36:07;;;;;;;4.13;2.20;;;12.60;99.90;;;;;;5066190;28;20222;-79
2023/03/23 08:38:33;;;;;;;5.10;2.53;;;12.50;99.90;;;;;;5080422;28;20211;-79
2023/03/23 08:41:01;;;;;;;3.73;2.20;;;12.60;99.90;;;;;;5058001;28;20206;-81
2023/03/23 08:43:27;;;;;;;3.23;2.40;;;12.60;99.90;;;;;;5074001;28;20214;-81
2023/03/23 08:45:53;;;;;;;4.53;2.53;;;12.70;99.90;;;;;;5073640;28;20241;-80
2023/03/23 08:48:19;;;;;;;3.50;2.17;;;12.80;99.90;;;;;;5077973;28;20703;-81
2023/03/23 08:50:45;;;;;;;4.40;2.20;;;12.90;99.90;;;;;;5076807;28;20203;-81
2023/03/23 08:53:11;;;;;;;4.90;2.30;;;13.00;99.90;;;;;;5059295;28;20298;-80
2023/03/23 08:55:38;;;;;;;3.23;1.90;;;13.00;99.90;;;;;;5073848;28;20167;-80
2023/03/23 08:58:04;;;;;;;5.27;3.50;;;13.00;99.90;;;;;;5074974;28;20195;-80
2023/03/23 09:00:30;;;;;;;5.63;2.90;;;13.00;99.90;;;;;;5082373;28;20236;-81
2023/03/23 09:02:56;;;;;;;2.10;1.77;;;13.00;99.90;;;;;;5059924;28;20215;-80
2023/03/23 09:05:24;;;;;;;5.50;2.30;;;13.10;99.90;;;;;;5072964;28;20236;-81
2023/03/23 09:07:52;;;;;;;2.23;1.63;;;13.30;99.90;;;;;;5052983;28;20187;-80
2023/03/23 09:10:18;;;;;;;4.03;2.20;;;13.40;99.90;;;;;;5063733;28;20182;-81
2023/03/23 09:12:45;;;;;;;4.27;2.27;;;13.60;99.90;;;;;;5076856;28;20225;-80
2023/03/23 09:15:14;;;;;;;3.67;2.40;;;13.60;99.90;;;;;;5060676;28;20210;-79
2023/03/23 09:17:44;;;;;;;2.53;1.77;;;13.60;99.90;;;;;;5072372;28;20211;-80
2023/03/23 09:20:11;;;;;;;2.97;2.08;;;13.50;99.90;;;;;;5055565;28;20542;-80
2023/03/23 09:22:39;;;;;;;2.80;1.90;;;13.40;99.90;;;;;;5065886;28;20252;-79
2023/03/23 09:25:07;;;;;;;4.28;1.92;;;13.50;99.90;;;;;;5052673;28;20175;-80
2023/03/23 09:27:33;;;;;;;3.65;2.10;;;13.50;99.90;;;;;;5053707;28;20218;-80
2023/03/23 09:30:00;;;;;;;2.38;2.00;;;13.60;99.90;;;;;;5069052;28;20644;-80
2023/03/23 09:32:26;;;;;;;3.53;2.00;;;13.80;99.90;;;;;;5049837;28;20212;-81
2023/03/23 09:34:54;;;;;;;6.70;1.90;;;14.20;99.90;;;;;;5071182;28;20249;-79
2023/03/23 09:37:20;;;;;;;2.22;1.65;;;14.50;99.90;;;;;;5078628;28;20179;-79
2023/03/23 09:39:46;;;;;;;2.35;1.98;;;14.90;99.90;;;;;;5057828;28;20236;-80
2023/03/23 09:42:43;;;;;;;2.15;1.92;;;15.20;99.90;;;;;;5073679;28;20210;-81
2023/03/23 09:45:28;;;;;;;3.40;1.42;;;15.50;99.90;;;;;;5066200;28;20206;-79
2023/03/23 09:47:59;;;;;;;3.67;1.60;;;15.70;99.90;;;;;;5085039;28;20199;-80
2023/03/23 09:50:32;;;;;;;1.92;1.70;;;15.80;99.90;;;;;;5087366;28;20286;-80
2023/03/23 09:53:20;;;;;;;4.13;1.98;;;15.90;99.90;;;;;;5088834;28;20202;-81
2023/03/23 09:55:48;;;;;;;2.13;1.83;;;15.80;99.90;;;;;;5081980;28;20172;-79
2023/03/23 09:58:35;;;;;;;4.53;2.35;;;15.80;99.90;;;;;;5056075;28;20247;-80
2023/03/23 10:01:12;;;;;;;2.97;1.73;;;15.90;99.90;;;;;;5072196;28;20207;-78
2023/03/23 10:03:44;;;;;;;2.92;1.45;;;15.90;99.90;;;;;;5076671;28;20222;-80
2023/03/23 10:06:12;;;;;;;5.82;1.65;;;15.90;99.90;;;;;;5055136;28;20693;-79
2023/03/23 10:08:43;;;;;;;1.73;1.10;;;15.70;99.90;;;;;;5097759;28;20215;-83
2023/03/23 10:11:32;;;;;;;1.63;1.30;;;15.50;99.90;;;;;;5098919;28;20225;-79
2023/03/23 10:14:16;;;;;;;4.63;1.40;;;15.40;99.90;;;;;;5098329;28;20207;-82
2023/03/23 10:17:25;;;;;;;2.60;1.70;;;15.20;99.90;;;;;;5078417;28;20247;-80
2023/03/23 10:20:24;;;;;;;1.27;1.17;;;15.20;99.90;;;;;;5040144;28;20347;-80
2023/03/23 10:22:53;;;;;;;4.00;1.73;;;15.10;99.90;;;;;;5070488;28;20180;-81
2023/03/23 10:25:26;;;;;;;2.83;1.38;;;15.10;99.90;;;;;;5079473;28;20175;-81
2023/03/23 10:28:12;;;;;;;2.90;1.38;;;15.30;99.90;;;;;;5075503;28;20207;-80
2023/03/23 10:30:44;;;;;;;3.70;1.77;;;15.30;99.90;;;;;;5057561;28;20600;-80
2023/03/23 10:33:29;;;;;;;2.22;1.33;;;15.40;99.90;;;;;;5054653;28;20214;-80
2023/03/23 10:36:21;;;;;;;3.00;1.48;;;15.40;99.90;;;;;;5058970;28;20206;-81
2023/03/23 10:39:09;;;;;;;1.77;1.30;;;15.50;99.90;;;;;;5079014;28;20207;-80
2023/03/23 10:41:34;;;;;;;2.83;1.70;;;15.70;99.90;;;;;;5087588;28;20203;-81
2023/03/23 10:44:01;;;;;;;2.80;1.50;;;15.70;99.90;;;;;;5067591;28;20696;-81
2023/03/23 10:46:39;;;;;;;1.83;1.30;;;15.80;99.90;;;;;;5079064;28;20175;-80
2023/03/23 10:49:12;;;;;;;2.72;1.70;;;15.90;99.90;;;;;;5059325;28;20210;-81
2023/03/23 10:51:46;;;;;;;1.80;1.38;;;15.90;99.90;;;;;;5072057;28;20237;-81
2023/03/23 10:54:12;;;;;;;4.50;1.45;;;15.80;99.90;;;;;;5070349;28;20203;-81
2023/03/23 10:56:44;;;;;;;2.05;1.45;;;15.70;99.90;;;;;;5076235;28;20199;-81
2023/03/23 10:59:21;;;;;;;2.38;1.48;;;15.70;99.90;;;;;;5071277;28;20252;-81
2023/03/23 11:01:50;;;;;;;1.38;1.10;;;15.60;99.90;;;;;;5075806;28;20232;-79
2023/03/23 11:04:18;;;;;;;2.63;1.40;;;15.40;99.90;;;;;;5068634;28;20214;-80
2023/03/23 11:06:48;;;;;;;2.38;1.40;;;15.40;99.90;;;;;;5053433;28;20199;-80
2023/03/23 11:09:19;;;;;;;3.50;1.50;;;15.30;99.90;;;;;;5062532;28;20745;-82
2023/03/23 11:11:51;;;;;;;2.05;1.52;;;15.40;99.90;;;;;;5060113;28;20211;-81
2023/03/23 11:14:29;;;;;;;2.20;1.10;;;15.30;99.90;;;;;;5063122;28;20245;-83
2023/03/23 11:16:57;;;;;;;2.13;1.35;;;15.30;99.90;;;;;;5068297;28;20238;-80
2023/03/23 11:19:26;;;;;;;2.95;1.90;;;15.30;99.90;;;;;;5091015;28;20182;-80
2023/03/23 11:21:57;;;;;;;3.22;1.45;;;15.40;99.90;;;;;;5067581;28;20212;-80
2023/03/23 11:24:26;;;;;;;1.88;1.30;;;15.30;99.90;;;;;;5077995;28;20257;-81
2023/03/23 11:26:53;;;;;;;2.60;1.30;;;15.30;99.90;;;;;;5079896;28;20263;-81
2023/03/23 11:29:24;;;;;;;4.35;1.77;;;15.40;99.90;;;;;;5072262;28;20735;-81
2023/03/23 11:32:05;;;;;;;4.43;1.38;;;15.60;99.90;;;;;;5066436;28;20187;-82
2023/03/23 11:34:35;;;;;;;2.50;1.38;;;15.80;99.90;;;;;;5078015;28;20200;-81
2023/03/23 11:37:04;;;;;;;3.05;1.65;;;15.90;99.90;;;;;;5063787;28;20180;-85
2023/03/23 11:39:54;;;;;;;3.08;1.30;;;15.90;99.90;;;;;;5067469;28;20199;-81
2023/03/23 11:42:27;;;;;;;4.32;1.90;;;16.00;99.90;;;;;;5063991;28;20213;-81
2023/03/23 11:44:53;;;;;;;2.58;1.92;;;16.10;99.90;;;;;;5060181;28;20204;-82
2023/03/23 11:47:41;;;;;;;4.63;1.48;;;16.20;99.90;;;;;;5078147;28;20207;-82
2023/03/23 11:50:12;;;;;;;3.78;1.63;;;16.30;99.90;;;;;;5074817;28;20245;-80
2023/03/23 11:53:03;;;;;;;3.88;1.45;;;16.30;99.90;;;;;;5071549;28;20175;-81
2023/03/23 11:55:42;;;;;;;4.25;1.55;;;16.30;99.90;;;;;;5068063;28;20171;-79
2023/03/23 11:58:13;;;;;;;3.22;1.48;;;16.20;99.90;;;;;;5050088;28;20260;-81
2023/03/23 12:00:57;;;;;;;4.82;1.48;;;16.20;99.90;;;;;;5057016;28;20632;-80
2023/03/23 12:03:26;;;;;;;1.58;1.17;;;16.20;99.90;;;;;;5054243;28;20214;-80
2023/03/23 12:06:14;;;;;;;1.88;1.42;;;16.30;99.90;;;;;;5067817;28;20199;-80
2023/03/23 12:08:51;;;;;;;2.50;1.90;;;16.30;99.90;;;;;;5052218;28;20213;-80
2023/03/23 12:11:43;;;;;;;1.65;1.50;;;16.30;99.90;;;;;;5071559;28;20194;-80
2023/03/23 12:14:33;;;;;;;2.60;1.50;;;16.30;99.90;;;;;;5069610;28;20203;-80
2023/03/23 12:17:30;;;;;;;2.42;1.27;;;16.20;99.90;;;;;;5066434;28;20223;-80
2023/03/23 12:20:16;;;;;;;3.13;1.70;;;16.10;99.90;;;;;;5064905;28;20204;-80
2023/03/23 12:22:58;;;;;;;3.47;1.52;;;16.00;99.90;;;;;;5086393;28;20175;-80
2023/03/23 12:26:07;;;;;;;2.25;1.80;;;16.00;99.90;;;;;;5089092;27;20576;-81
2023/03/23 12:28:58;;;;;;;3.20;1.70;;;16.00;99.90;;;;;;5047797;28;20187;-79
2023/03/23 12:31:35;;;;;;;4.55;1.48;;;16.00;99.90;;;;;;5066423;28;20171;-81
2023/03/23 12:34:19;;;;;;;2.40;1.75;;;16.10;99.90;;;;;;5055441;28;20218;-80
2023/03/23 12:37:02;;;;;;;2.55;1.60;;;16.00;99.90;;;;;;5045822;28;20204;-80
2023/03/23 12:39:45;;;;;;;2.35;1.60;;;16.10;99.90;;;;;;5059146;28;20394;-80
2023/03/23 12:42:30;;;;;;;2.30;1.58;;;16.20;99.90;;;;;;5052226;28;20304;-80
2023/03/23 12:45:10;;;;;;;2.58;1.52;;;16.20;99.90;;;;;;5058915;28;20229;-80
2023/03/23 12:47:46;;;;;;;2.40;1.70;;;16.20;99.90;;;;;;5044667;28;20269;-80
2023/03/23 12:50:28;;;;;;;2.42;1.48;;;16.20;99.90;;;;;;5040372;28;20298;-82
2023/03/23 12:53:09;;;;;;;3.88;1.70;;;16.20;99.90;;;;;;5038125;28;20569;-80
2023/03/23 12:55:46;;;;;;;3.08;1.58;;;16.30;99.90;;;;;;5037980;28;20185;-80
2023/03/23 12:58:30;;;;;;;2.63;1.63;;;16.50;99.90;;;;;;5047369;28;20225;-80
2023/03/23 13:01:21;;;;;;;4.50;1.80;;;16.60;99.90;;;;;;5042543;28;20254;-81
2023/03/23 13:04:27;;;;;;;2.75;1.67;;;16.80;99.90;;;;;;5048474;28;20261;-81
2023/03/23 13:06:53;;;;;;;2.80;1.70;;;16.90;99.90;;;;;;5048127;28;20199;-81